createdAt,value
2019-01-03T00:00:34.430Z,283.64
2019-01-03T00:01:34.425Z,283.27
2019-01-03T00:02:34.414Z,283.10
2019-01-03T00:03:34.394Z,283.54
2019-01-03T00:04:34.387Z,283.93
2019-01-03T00:05:34.379Z,283.74
2019-01-03T00:06:34.379Z,283.75
2019-01-03T00:07:34.377Z,283.48
2019-01-03T00:08:34.343Z,283.84
2019-01-03T00:09:34.336Z,283.57
2019-01-03T00:10:34.324Z,283.45
2019-01-03T00:11:34.310Z,283.60
2019-01-03T00:12:34.340Z,283.23
2019-01-03T00:13:34.296Z,283.45
2019-01-03T00:14:34.283Z,283.64
2019-01-03T00:15:34.269Z,283.86
2019-01-03T00:16:34.268Z,283.70
2019-01-03T00:17:34.256Z,283.62
2019-01-03T00:18:34.246Z,283.94
2019-01-03T00:19:34.228Z,283.37
2019-01-03T00:20:34.218Z,283.50
2019-01-03T00:21:34.220Z,283.77
2019-01-03T00:22:34.199Z,283.78
2019-01-03T00:23:34.183Z,283.79
2019-01-03T00:24:34.185Z,283.67
2019-01-03T00:25:34.168Z,283.01
2019-01-03T00:26:34.158Z,283.33
2019-01-03T00:27:34.155Z,283.96
2019-01-03T00:28:36.035Z,283.17
2019-01-03T00:29:34.129Z,283.57
2019-01-03T00:30:34.121Z,283.54
2019-01-03T00:31:34.110Z,283.78
2019-01-03T00:32:34.091Z,283.57
2019-01-03T00:33:34.105Z,283.74
2019-01-03T00:34:34.064Z,283.68
2019-01-03T00:35:34.068Z,283.40
2019-01-03T00:36:34.126Z,283.57
2019-01-03T00:37:34.033Z,283.44
2019-01-03T00:38:34.031Z,283.38
2019-01-03T00:39:34.021Z,283.33
2019-01-03T00:40:34.009Z,283.55
2019-01-03T00:41:34.007Z,283.40
2019-01-03T00:42:33.982Z,283.25
2019-01-03T00:43:33.987Z,283.91
2019-01-03T00:44:33.961Z,283.52
2019-01-03T00:45:33.962Z,283.78
2019-01-03T00:46:33.954Z,282.92
2019-01-03T00:47:33.942Z,283.98
2019-01-03T00:48:33.929Z,283.98
2019-01-03T00:49:33.924Z,283.13
2019-01-03T00:50:33.935Z,283.22
2019-01-03T00:51:33.891Z,283.69
2019-01-03T00:52:33.886Z,283.48
2019-01-03T00:53:33.877Z,283.53
2019-01-03T00:54:33.861Z,283.37
2019-01-03T00:55:33.846Z,283.58
2019-01-03T00:56:33.836Z,283.38
2019-01-03T00:57:33.819Z,284.03
2019-01-03T00:58:33.820Z,283.52
2019-01-03T00:59:33.813Z,282.97
2019-01-03T01:00:33.799Z,283.48
2019-01-03T01:01:33.784Z,283.56
2019-01-03T01:02:33.775Z,283.35
2019-01-03T01:03:33.772Z,283.61
2019-01-03T01:04:33.842Z,283.47
2019-01-03T01:05:33.862Z,283.75
2019-01-03T01:06:33.732Z,283.68
2019-01-03T01:07:33.717Z,283.48
2019-01-03T01:08:33.711Z,283.42
2019-01-03T01:09:33.698Z,283.23
2019-01-03T01:10:33.693Z,283.64
2019-01-03T01:11:33.687Z,283.27
2019-01-03T01:12:33.672Z,283.79
2019-01-03T01:13:33.657Z,283.47
2019-01-03T01:14:33.644Z,283.26
2019-01-03T01:15:33.642Z,283.11
2019-01-03T01:16:33.633Z,283.28
2019-01-03T01:17:33.618Z,283.65
2019-01-03T01:18:33.597Z,283.17
2019-01-03T01:19:33.602Z,283.69
2019-01-03T01:20:33.580Z,283.48
2019-01-03T01:21:33.574Z,283.54
2019-01-03T01:22:33.577Z,283.29
2019-01-03T01:23:33.553Z,283.97
2019-01-03T01:24:33.567Z,283.56
2019-01-03T01:25:33.534Z,283.27
2019-01-03T01:26:33.523Z,283.42
2019-01-03T01:27:33.508Z,283.44
2019-01-03T01:28:33.502Z,283.46
2019-01-03T01:29:33.532Z,283.97
2019-01-03T01:30:33.473Z,283.59
2019-01-03T01:31:33.467Z,282.83
2019-01-03T01:32:33.458Z,283.13
2019-01-03T01:33:33.468Z,283.53
2019-01-03T01:34:33.561Z,283.19
2019-01-03T01:35:33.454Z,283.77
2019-01-03T01:36:33.479Z,283.50
2019-01-03T01:37:33.496Z,283.87
2019-01-03T01:38:33.395Z,283.86
2019-01-03T01:39:33.379Z,283.09
2019-01-03T01:40:33.376Z,283.56
2019-01-03T01:41:33.506Z,283.69
2019-01-03T01:42:33.400Z,283.45
2019-01-03T01:43:33.417Z,283.79
2019-01-03T01:44:33.326Z,282.96
2019-01-03T01:45:33.322Z,283.29
2019-01-03T01:46:33.325Z,283.68
2019-01-03T01:47:33.307Z,283.20
2019-01-03T01:48:33.284Z,283.45
2019-01-03T01:49:33.273Z,283.41
2019-01-03T01:50:33.264Z,283.39
2019-01-03T01:51:33.246Z,283.62
2019-01-03T01:52:33.255Z,283.54
2019-01-03T01:53:33.239Z,283.94
2019-01-03T01:54:33.222Z,283.66
2019-01-03T01:55:33.215Z,283.57
2019-01-03T01:56:33.267Z,283.81
2019-01-03T01:57:33.202Z,283.31
2019-01-03T01:58:33.203Z,282.92
2019-01-03T01:59:33.178Z,283.43
2019-01-03T02:00:33.185Z,283.47
2019-01-03T02:01:33.158Z,283.42
2019-01-03T02:02:33.159Z,283.40
2019-01-03T02:03:33.167Z,283.20
2019-01-03T02:04:33.155Z,283.33
2019-01-03T02:05:33.121Z,283.83
2019-01-03T02:06:33.103Z,283.47
2019-01-03T02:07:33.102Z,283.96
2019-01-03T02:08:33.117Z,284.00
2019-01-03T02:09:33.094Z,283.53
2019-01-03T02:10:33.079Z,284.05
2019-01-03T02:11:33.092Z,283.27
2019-01-03T02:12:33.035Z,283.26
2019-01-03T02:13:33.035Z,283.93
2019-01-03T02:14:33.058Z,283.36
2019-01-03T02:15:33.022Z,283.94
2019-01-03T02:16:33.020Z,283.69
2019-01-03T02:17:33.019Z,283.61
2019-01-03T02:18:32.988Z,283.59
2019-01-03T02:19:33.005Z,283.79
2019-01-03T02:20:33.003Z,283.71
2019-01-03T02:21:32.962Z,283.51
2019-01-03T02:22:32.937Z,283.69
2019-01-03T02:23:32.918Z,283.49
2019-01-03T02:24:32.913Z,283.42
2019-01-03T02:25:32.911Z,284.02
2019-01-03T02:26:32.904Z,283.36
2019-01-03T02:27:32.881Z,283.17
2019-01-03T02:28:32.883Z,283.83
2019-01-03T02:29:32.868Z,283.29
2019-01-03T02:30:32.845Z,283.50
2019-01-03T02:31:32.842Z,282.98
2019-01-03T02:32:32.843Z,283.47
2019-01-03T02:33:32.855Z,283.47
2019-01-03T02:34:32.829Z,283.84
2019-01-03T02:35:32.808Z,283.18
2019-01-03T02:36:32.846Z,283.18
2019-01-03T02:37:32.769Z,283.28
2019-01-03T02:38:32.765Z,283.09
2019-01-03T02:39:32.777Z,284.15
2019-01-03T02:40:32.751Z,283.22
2019-01-03T02:41:33.585Z,283.22
2019-01-03T02:42:32.724Z,283.21
2019-01-03T02:43:32.711Z,283.68
2019-01-03T02:44:32.706Z,283.74
2019-01-03T02:45:32.726Z,283.11
2019-01-03T02:46:32.687Z,283.38
2019-01-03T02:47:32.683Z,283.62
2019-01-03T02:48:32.651Z,283.35
2019-01-03T02:49:32.674Z,283.54
2019-01-03T02:50:32.649Z,283.13
2019-01-03T02:51:32.658Z,283.36
2019-01-03T02:52:32.624Z,283.77
2019-01-03T02:53:32.617Z,283.60
2019-01-03T02:54:32.606Z,284.08
2019-01-03T02:55:32.586Z,283.48
2019-01-03T02:56:32.587Z,283.44
2019-01-03T02:57:32.570Z,283.47
2019-01-03T02:58:32.597Z,283.75
2019-01-03T02:59:32.548Z,283.31
2019-01-03T03:00:32.535Z,283.89
2019-01-03T03:01:32.517Z,283.97
2019-01-03T03:02:32.509Z,283.01
2019-01-03T03:03:32.512Z,283.61
2019-01-03T03:04:32.484Z,283.79
2019-01-03T03:05:32.471Z,283.67
2019-01-03T03:06:32.471Z,283.70
2019-01-03T03:07:32.498Z,283.57
2019-01-03T03:08:32.447Z,283.65
2019-01-03T03:09:32.433Z,283.75
2019-01-03T03:10:32.426Z,284.04
2019-01-03T03:11:32.414Z,283.35
2019-01-03T03:12:32.421Z,283.45
2019-01-03T03:13:32.388Z,283.76
2019-01-03T03:14:32.381Z,283.30
2019-01-03T03:15:32.377Z,283.30
2019-01-03T03:16:32.394Z,284.06
2019-01-03T03:17:32.346Z,283.74
2019-01-03T03:18:32.361Z,283.17
2019-01-03T03:19:32.355Z,283.62
2019-01-03T03:20:32.313Z,283.67
2019-01-03T03:21:32.297Z,283.49
2019-01-03T03:22:32.290Z,283.65
2019-01-03T03:23:32.272Z,283.58
2019-01-03T03:24:32.265Z,283.75
2019-01-03T03:25:32.265Z,283.44
2019-01-03T03:26:32.251Z,283.33
2019-01-03T03:27:32.232Z,283.71
2019-01-03T03:28:32.229Z,283.10
2019-01-03T03:29:32.216Z,283.79
2019-01-03T03:30:32.206Z,283.53
2019-01-03T03:31:32.189Z,283.45
2019-01-03T03:32:32.186Z,283.27
2019-01-03T03:33:32.187Z,283.62
2019-01-03T03:34:32.154Z,283.06
2019-01-03T03:35:32.153Z,283.58
2019-01-03T03:36:32.144Z,283.09
2019-01-03T03:37:32.124Z,283.70
2019-01-03T03:38:32.119Z,283.52
2019-01-03T03:39:32.106Z,283.61
2019-01-03T03:40:32.100Z,283.44
2019-01-03T03:41:32.098Z,283.48
2019-01-03T03:42:32.072Z,283.66
2019-01-03T03:43:32.078Z,283.42
2019-01-03T03:44:32.078Z,283.31
2019-01-03T03:45:32.059Z,283.27
2019-01-03T03:46:32.048Z,283.39
2019-01-03T03:47:32.028Z,283.28
2019-01-03T03:48:32.004Z,283.43
2019-01-03T03:49:32.005Z,283.66
2019-01-03T03:50:31.989Z,283.48
2019-01-03T03:51:31.980Z,283.42
2019-01-03T03:52:31.972Z,283.40
2019-01-03T03:53:31.975Z,283.54
2019-01-03T03:54:31.945Z,282.99
2019-01-03T03:55:31.937Z,283.66
2019-01-03T03:56:31.938Z,283.21
2019-01-03T03:57:31.960Z,282.63
2019-01-03T03:58:31.920Z,283.63
2019-01-03T03:59:32.015Z,283.44
2019-01-03T04:00:31.980Z,283.17
2019-01-03T04:01:31.895Z,283.29
2019-01-03T04:02:31.863Z,283.20
2019-01-03T04:03:31.853Z,283.75
2019-01-03T04:04:31.886Z,283.89
2019-01-03T04:05:31.823Z,283.38
2019-01-03T04:06:31.884Z,283.74
2019-01-03T04:07:31.810Z,283.68
2019-01-03T04:08:31.792Z,283.46
2019-01-03T04:09:31.808Z,284.39
2019-01-03T04:10:31.788Z,284.02
2019-01-03T04:11:31.774Z,283.70
2019-01-03T04:12:31.757Z,283.56
2019-01-03T04:13:31.751Z,283.64
2019-01-03T04:14:31.741Z,283.30
2019-01-03T04:15:31.728Z,283.36
2019-01-03T04:16:31.712Z,283.69
2019-01-03T04:17:31.698Z,283.70
2019-01-03T04:18:31.687Z,283.97
2019-01-03T04:19:31.739Z,283.78
2019-01-03T04:20:31.673Z,283.93
2019-01-03T04:21:31.673Z,283.62
2019-01-03T04:22:31.654Z,284.32
2019-01-03T04:23:31.642Z,283.60
2019-01-03T04:24:31.640Z,283.45
2019-01-03T04:25:31.611Z,283.56
2019-01-03T04:26:31.603Z,283.22
2019-01-03T04:27:31.605Z,283.70
2019-01-03T04:28:31.580Z,283.76
2019-01-03T04:29:31.584Z,283.90
2019-01-03T04:30:31.559Z,283.71
2019-01-03T04:31:31.648Z,283.80
2019-01-03T04:32:31.554Z,283.44
2019-01-03T04:33:31.529Z,283.99
2019-01-03T04:34:31.510Z,283.83
2019-01-03T04:35:31.510Z,283.68
2019-01-03T04:36:31.493Z,283.87
2019-01-03T04:37:31.484Z,283.61
2019-01-03T04:38:31.470Z,283.42
2019-01-03T04:39:31.461Z,283.61
2019-01-03T04:40:31.455Z,283.97
2019-01-03T04:41:31.509Z,283.77
2019-01-03T04:42:31.436Z,283.70
2019-01-03T04:43:31.423Z,283.92
2019-01-03T04:44:31.412Z,283.74
2019-01-03T04:45:31.435Z,283.57
2019-01-03T04:46:31.388Z,283.31
2019-01-03T04:47:31.376Z,283.29
2019-01-03T04:48:31.432Z,283.94
2019-01-03T04:49:31.369Z,283.50
2019-01-03T04:50:31.346Z,283.33
2019-01-03T04:51:31.333Z,283.97
2019-01-03T04:52:31.325Z,284.07
2019-01-03T04:53:31.316Z,283.58
2019-01-03T04:54:31.319Z,283.33
2019-01-03T04:55:31.286Z,283.81
2019-01-03T04:56:31.280Z,283.76
2019-01-03T04:57:31.270Z,283.94
2019-01-03T04:58:31.360Z,283.74
2019-01-03T04:59:31.246Z,283.31
2019-01-03T05:00:31.239Z,283.50
2019-01-03T05:01:31.231Z,283.22
2019-01-03T05:02:31.221Z,283.66
2019-01-03T05:03:31.209Z,283.55
2019-01-03T05:04:31.198Z,283.96
2019-01-03T05:05:31.186Z,283.41
2019-01-03T05:06:31.176Z,284.38
2019-01-03T05:07:31.166Z,283.31
2019-01-03T05:08:31.165Z,284.22
2019-01-03T05:09:31.139Z,284.09
2019-01-03T05:10:31.129Z,283.47
2019-01-03T05:11:31.122Z,284.17
2019-01-03T05:12:31.115Z,284.11
2019-01-03T05:13:31.109Z,283.73
2019-01-03T05:14:31.100Z,283.53
2019-01-03T05:15:31.080Z,283.98
2019-01-03T05:16:31.071Z,283.99
2019-01-03T05:17:31.066Z,284.04
2019-01-03T05:18:32.019Z,284.32
2019-01-03T05:19:31.038Z,283.81
2019-01-03T05:20:31.059Z,284.34
2019-01-03T05:21:31.013Z,284.42
2019-01-03T05:22:31.003Z,283.85
2019-01-03T05:23:31.017Z,283.53
2019-01-03T05:24:30.978Z,283.48
2019-01-03T05:25:30.981Z,283.90
2019-01-03T05:26:30.983Z,283.19
2019-01-03T05:27:30.955Z,283.05
2019-01-03T05:28:30.943Z,283.81
2019-01-03T05:29:30.937Z,283.50
2019-01-03T05:30:30.924Z,283.41
2019-01-03T05:31:30.916Z,283.06
2019-01-03T05:32:30.903Z,283.64
2019-01-03T05:33:30.886Z,283.50
2019-01-03T05:34:30.880Z,283.81
2019-01-03T05:35:30.883Z,283.83
2019-01-03T05:36:30.869Z,283.29
2019-01-03T05:37:30.842Z,283.04
2019-01-03T05:38:30.838Z,283.64
2019-01-03T05:39:30.829Z,282.43
2019-01-03T05:40:30.840Z,283.11
2019-01-03T05:41:30.896Z,282.70
2019-01-03T05:42:30.811Z,283.29
2019-01-03T05:43:30.784Z,283.48
2019-01-03T05:44:30.767Z,283.13
2019-01-03T05:45:30.767Z,282.22
2019-01-03T05:46:30.753Z,283.33
2019-01-03T05:47:30.745Z,282.89
2019-01-03T05:48:30.744Z,282.47
2019-01-03T05:49:30.726Z,282.57
2019-01-03T05:50:30.711Z,282.20
2019-01-03T05:51:30.714Z,282.94
2019-01-03T05:52:30.701Z,282.48
2019-01-03T05:53:30.683Z,282.15
2019-01-03T05:54:30.669Z,282.15
2019-01-03T05:55:30.656Z,282.78
2019-01-03T05:56:30.648Z,282.90
2019-01-03T05:57:30.637Z,282.06
2019-01-03T05:58:30.714Z,282.67
2019-01-03T05:59:30.631Z,282.56
2019-01-03T06:00:30.608Z,282.61
2019-01-03T06:01:30.593Z,282.65
2019-01-03T06:02:30.599Z,282.57
2019-01-03T06:03:30.727Z,282.13
2019-01-03T06:04:30.568Z,282.35
2019-01-03T06:05:30.555Z,282.71
2019-01-03T06:06:30.551Z,282.54
2019-01-03T06:07:30.532Z,282.59
2019-01-03T06:08:30.526Z,282.84
2019-01-03T06:09:30.521Z,282.79
2019-01-03T06:10:30.499Z,282.31
2019-01-03T06:11:30.668Z,282.59
2019-01-03T06:12:30.485Z,282.29
2019-01-03T06:13:30.477Z,282.30
2019-01-03T06:14:30.463Z,282.22
2019-01-03T06:15:30.451Z,282.69
2019-01-03T06:16:30.444Z,283.15
2019-01-03T06:17:30.428Z,282.68
2019-01-03T06:18:30.411Z,283.00
2019-01-03T06:19:30.580Z,283.10
2019-01-03T06:20:30.391Z,283.03
2019-01-03T06:21:30.379Z,283.31
2019-01-03T06:22:30.389Z,283.27
2019-01-03T06:23:30.362Z,283.23
2019-01-03T06:24:30.350Z,283.24
2019-01-03T06:25:30.409Z,283.54
2019-01-03T06:26:30.345Z,283.80
2019-01-03T06:27:30.351Z,282.76
2019-01-03T06:28:30.323Z,283.45
2019-01-03T06:29:30.295Z,283.98
2019-01-03T06:30:30.283Z,284.17
2019-01-03T06:31:30.279Z,283.65
2019-01-03T06:32:30.265Z,283.79
2019-01-03T06:33:30.272Z,283.73
2019-01-03T06:34:30.257Z,283.70
2019-01-03T06:35:30.239Z,283.77
2019-01-03T06:36:35.977Z,283.44
2019-01-03T06:37:31.208Z,283.82
2019-01-03T06:38:30.199Z,283.52
2019-01-03T06:39:30.195Z,283.66
2019-01-03T06:40:30.185Z,283.76
2019-01-03T06:41:30.167Z,283.96
2019-01-03T06:42:30.162Z,283.63
2019-01-03T06:43:30.149Z,283.75
2019-01-03T06:44:30.142Z,283.89
2019-01-03T06:45:30.135Z,283.54
2019-01-03T06:46:30.139Z,283.80
2019-01-03T06:47:30.163Z,283.55
2019-01-03T06:48:30.096Z,283.61
2019-01-03T06:49:30.078Z,283.43
2019-01-03T06:50:30.072Z,283.15
2019-01-03T06:51:30.076Z,283.62
2019-01-03T06:52:30.069Z,283.06
2019-01-03T06:53:30.051Z,282.97
2019-01-03T06:54:30.041Z,282.79
2019-01-03T06:55:30.023Z,283.12
2019-01-03T06:56:30.014Z,283.15
2019-01-03T06:57:30.014Z,283.70
2019-01-03T06:58:30.010Z,283.60
2019-01-03T06:59:30.016Z,283.22
2019-01-03T07:00:29.969Z,283.48
2019-01-03T07:01:29.973Z,282.88
2019-01-03T07:02:29.955Z,282.80
2019-01-03T07:03:29.953Z,283.25
2019-01-03T07:04:29.931Z,283.15
2019-01-03T07:05:29.918Z,283.28
2019-01-03T07:06:29.910Z,282.70
2019-01-03T07:07:29.898Z,283.22
2019-01-03T07:08:29.914Z,283.28
2019-01-03T07:09:29.880Z,282.82
2019-01-03T07:10:29.870Z,282.88
2019-01-03T07:11:29.882Z,282.85
2019-01-03T07:12:29.848Z,282.78
2019-01-03T07:13:29.830Z,282.75
2019-01-03T07:14:29.864Z,283.04
2019-01-03T07:15:29.821Z,282.35
2019-01-03T07:16:29.805Z,283.12
2019-01-03T07:17:29.789Z,282.44
2019-01-03T07:18:29.786Z,282.20
2019-01-03T07:19:29.774Z,282.63
2019-01-03T07:20:29.765Z,283.00
2019-01-03T07:21:29.764Z,282.80
2019-01-03T07:22:29.756Z,283.03
2019-01-03T07:23:29.726Z,282.88
2019-01-03T07:24:29.727Z,282.52
2019-01-03T07:25:29.723Z,282.80
2019-01-03T07:26:29.698Z,282.70
2019-01-03T07:27:29.700Z,282.64
2019-01-03T07:28:29.682Z,282.59
2019-01-03T07:29:29.674Z,282.75
2019-01-03T07:30:29.658Z,283.12
2019-01-03T07:31:29.666Z,284.02
2019-01-03T07:32:29.634Z,282.61
2019-01-03T07:33:29.628Z,283.23
2019-01-03T07:34:29.630Z,282.53
2019-01-03T07:35:29.599Z,283.62
2019-01-03T07:36:29.591Z,283.53
2019-01-03T07:37:29.582Z,282.99
2019-01-03T07:38:29.582Z,283.09
2019-01-03T07:39:29.701Z,283.85
2019-01-03T07:40:29.551Z,283.68
2019-01-03T07:41:29.547Z,283.39
2019-01-03T07:42:29.537Z,282.86
2019-01-03T07:43:29.528Z,283.20
2019-01-03T07:44:29.526Z,283.32
2019-01-03T07:45:29.499Z,283.73
2019-01-03T07:46:29.495Z,283.43
2019-01-03T07:47:29.483Z,283.42
2019-01-03T07:48:29.465Z,283.29
2019-01-03T07:49:29.464Z,283.63
2019-01-03T07:50:29.453Z,283.77
2019-01-03T07:51:29.448Z,283.26
2019-01-03T07:52:29.423Z,283.37
2019-01-03T07:53:29.411Z,283.77
2019-01-03T07:54:29.410Z,283.82
2019-01-03T07:55:29.389Z,283.89
2019-01-03T07:56:29.412Z,283.57
2019-01-03T07:57:29.407Z,283.48
2019-01-03T07:58:29.398Z,284.00
2019-01-03T07:59:29.346Z,283.93
2019-01-03T08:00:29.380Z,283.91
2019-01-03T08:01:29.332Z,283.53
2019-01-03T08:02:29.315Z,283.97
2019-01-03T08:03:29.317Z,283.43
2019-01-03T08:04:29.326Z,284.27
2019-01-03T08:05:29.314Z,283.50
2019-01-03T08:06:29.275Z,283.94
2019-01-03T08:07:29.270Z,283.81
2019-01-03T08:08:29.253Z,283.92
2019-01-03T08:09:29.238Z,283.46
2019-01-03T08:10:29.238Z,283.92
2019-01-03T08:11:29.217Z,283.36
2019-01-03T08:12:29.208Z,283.54
2019-01-03T08:13:29.198Z,283.62
2019-01-03T08:14:29.194Z,283.86
2019-01-03T08:15:29.189Z,284.35
2019-01-03T08:16:29.164Z,284.59
2019-01-03T08:17:29.156Z,284.50
2019-01-03T08:18:29.147Z,283.50
2019-01-03T08:19:29.155Z,283.93
2019-01-03T08:20:29.132Z,284.54
2019-01-03T08:21:29.111Z,283.92
2019-01-03T08:22:29.102Z,285.20
2019-01-03T08:23:29.087Z,284.11
2019-01-03T08:24:29.085Z,284.46
2019-01-03T08:25:29.070Z,284.55
2019-01-03T08:26:29.061Z,284.51
2019-01-03T08:27:29.058Z,284.67
2019-01-03T08:28:29.044Z,284.66
2019-01-03T08:29:29.025Z,284.87
2019-01-03T08:30:29.022Z,284.77
2019-01-03T08:31:29.016Z,285.07
2019-01-03T08:32:28.993Z,284.42
2019-01-03T08:33:28.987Z,284.49
2019-01-03T08:34:28.985Z,284.69
2019-01-03T08:35:28.962Z,284.75
2019-01-03T08:36:28.952Z,284.15
2019-01-03T08:37:28.949Z,284.48
2019-01-03T08:38:28.942Z,284.69
2019-01-03T08:39:28.956Z,284.63
2019-01-03T08:40:28.929Z,284.28
2019-01-03T08:41:28.900Z,284.56
2019-01-03T08:42:28.893Z,284.30
2019-01-03T08:43:28.886Z,284.35
2019-01-03T08:44:28.870Z,284.06
2019-01-03T08:45:28.867Z,285.03
2019-01-03T08:46:28.846Z,284.25
2019-01-03T08:47:28.837Z,284.25
2019-01-03T08:48:28.824Z,284.34
2019-01-03T08:49:28.811Z,284.26
2019-01-03T08:50:29.126Z,284.46
2019-01-03T08:51:28.801Z,284.45
2019-01-03T08:52:28.910Z,284.30
2019-01-03T08:53:28.780Z,283.88
2019-01-03T08:54:28.771Z,283.52
2019-01-03T08:55:28.793Z,284.17
2019-01-03T08:56:28.753Z,284.08
2019-01-03T08:57:28.735Z,283.62
2019-01-03T08:58:28.715Z,283.31
2019-01-03T08:59:28.721Z,283.76
2019-01-03T09:00:28.721Z,283.34
2019-01-03T09:01:28.734Z,284.35
2019-01-03T09:02:28.693Z,283.83
2019-01-03T09:03:28.667Z,283.79
2019-01-03T09:04:28.655Z,283.74
2019-01-03T09:05:28.669Z,283.10
2019-01-03T09:06:28.640Z,283.53
2019-01-03T09:07:28.633Z,283.02
2019-01-03T09:08:28.630Z,283.89
2019-01-03T09:09:28.600Z,283.40
2019-01-03T09:10:28.622Z,283.42
2019-01-03T09:11:28.587Z,283.02
2019-01-03T09:12:28.634Z,283.03
2019-01-03T09:13:28.561Z,283.42
2019-01-03T09:14:28.562Z,283.27
2019-01-03T09:15:28.551Z,283.77
2019-01-03T09:16:28.548Z,283.82
2019-01-03T09:17:28.526Z,283.26
2019-01-03T09:18:28.514Z,283.27
2019-01-03T09:19:28.499Z,283.32
2019-01-03T09:20:28.492Z,283.58
2019-01-03T09:21:28.486Z,283.97
2019-01-03T09:22:28.472Z,283.62
2019-01-03T09:23:28.456Z,284.11
2019-01-03T09:24:28.457Z,283.30
2019-01-03T09:25:28.435Z,283.37
2019-01-03T09:26:28.431Z,283.60
2019-01-03T09:27:28.443Z,283.68
2019-01-03T09:28:28.406Z,284.17
2019-01-03T09:29:28.398Z,284.09
2019-01-03T09:30:28.387Z,283.87
2019-01-03T09:31:28.375Z,284.26
2019-01-03T09:32:28.370Z,284.10
2019-01-03T09:33:28.360Z,284.30
2019-01-03T09:34:28.343Z,284.28
2019-01-03T09:35:28.336Z,283.75
2019-01-03T09:36:28.317Z,283.48
2019-01-03T09:37:28.316Z,283.82
2019-01-03T09:38:28.308Z,284.50
2019-01-03T09:39:28.289Z,284.01
2019-01-03T09:40:28.283Z,284.14
2019-01-03T09:41:28.268Z,283.90
2019-01-03T09:42:28.264Z,283.94
2019-01-03T09:43:28.290Z,284.79
2019-01-03T09:44:28.239Z,283.78
2019-01-03T09:45:28.223Z,284.06
2019-01-03T09:46:28.212Z,284.58
2019-01-03T09:47:28.306Z,284.69
2019-01-03T09:48:28.202Z,284.52
2019-01-03T09:49:28.189Z,284.16
2019-01-03T09:50:28.185Z,284.83
2019-01-03T09:51:28.240Z,285.50
2019-01-03T09:52:28.179Z,284.15
2019-01-03T09:53:28.132Z,284.45
2019-01-03T09:54:28.149Z,284.96
2019-01-03T09:55:28.131Z,285.15
2019-01-03T09:56:28.111Z,284.78
2019-01-03T09:57:28.104Z,284.48
2019-01-03T09:58:28.103Z,285.30
2019-01-03T09:59:28.071Z,284.34
2019-01-03T10:00:28.069Z,285.37
2019-01-03T10:01:28.053Z,284.81
2019-01-03T10:02:28.049Z,284.15
2019-01-03T10:03:28.033Z,284.97
2019-01-03T10:04:28.018Z,284.48
2019-01-03T10:05:28.021Z,284.71
2019-01-03T10:06:28.005Z,284.49
2019-01-03T10:07:27.987Z,284.50
2019-01-03T10:08:27.989Z,284.73
2019-01-03T10:09:27.993Z,284.28
2019-01-03T10:10:27.954Z,284.46
2019-01-03T10:11:27.952Z,284.69
2019-01-03T10:12:27.938Z,284.35
2019-01-03T10:13:27.952Z,284.02
2019-01-03T10:14:27.921Z,284.98
2019-01-03T10:15:27.909Z,284.54
2019-01-03T10:16:27.899Z,284.68
2019-01-03T10:17:27.888Z,284.08
2019-01-03T10:18:27.876Z,284.21
2019-01-03T10:19:27.873Z,284.29
2019-01-03T10:20:27.867Z,284.17
2019-01-03T10:21:27.850Z,284.46
2019-01-03T10:22:27.844Z,284.51
2019-01-03T10:23:27.828Z,284.32
2019-01-03T10:24:27.813Z,283.40
2019-01-03T10:25:27.801Z,283.60
2019-01-03T10:26:27.888Z,284.25
2019-01-03T10:27:27.821Z,283.83
2019-01-03T10:28:27.770Z,283.69
2019-01-03T10:29:27.831Z,284.06
2019-01-03T10:30:28.286Z,284.04
2019-01-03T10:31:27.926Z,284.45
2019-01-03T10:32:27.796Z,284.01
2019-01-03T10:33:27.891Z,284.88
2019-01-03T10:34:27.714Z,284.84
2019-01-03T10:35:27.703Z,284.47
2019-01-03T10:36:27.689Z,284.17
2019-01-03T10:37:27.972Z,284.65
2019-01-03T10:38:27.896Z,284.83
2019-01-03T10:39:27.780Z,284.56
2019-01-03T10:40:27.716Z,284.17
2019-01-03T10:41:27.650Z,284.60
2019-01-03T10:42:28.000Z,286.19
2019-01-03T10:43:27.658Z,285.21
2019-01-03T10:44:27.629Z,284.26
2019-01-03T10:45:27.651Z,284.44
2019-01-03T10:46:27.597Z,284.23
2019-01-03T10:47:27.578Z,284.76
2019-01-03T10:48:27.570Z,284.88
2019-01-03T10:49:27.561Z,284.20
2019-01-03T10:50:27.546Z,284.70
2019-01-03T10:51:27.598Z,284.91
2019-01-03T10:52:27.881Z,284.78
2019-01-03T10:53:29.024Z,284.58
2019-01-03T10:54:27.509Z,284.71
2019-01-03T10:55:27.769Z,283.70
2019-01-03T10:56:27.605Z,284.75
2019-01-03T10:57:27.542Z,284.20
2019-01-03T10:58:27.721Z,283.59
2019-01-03T10:59:28.076Z,284.70
2019-01-03T11:00:28.314Z,284.10
2019-01-03T11:01:27.645Z,284.80
2019-01-03T11:02:27.870Z,284.20
2019-01-03T11:03:29.793Z,283.98
2019-01-03T11:04:27.475Z,284.02
2019-01-03T11:05:27.443Z,283.59
2019-01-03T11:06:27.373Z,284.30
2019-01-03T11:07:27.442Z,284.16
2019-01-03T11:08:27.402Z,283.86
2019-01-03T11:09:27.416Z,283.45
2019-01-03T11:10:27.375Z,283.92
2019-01-03T11:11:27.349Z,284.30
2019-01-03T11:12:27.312Z,283.59
2019-01-03T11:13:27.394Z,283.07
2019-01-03T11:14:27.367Z,283.24
2019-01-03T11:15:27.319Z,283.17
2019-01-03T11:16:27.364Z,282.86
2019-01-03T11:17:27.454Z,282.88
2019-01-03T11:18:27.535Z,283.27
2019-01-03T11:19:27.413Z,282.91
2019-01-03T11:20:27.237Z,283.31
2019-01-03T11:21:27.228Z,282.35
2019-01-03T11:22:27.285Z,282.51
2019-01-03T11:23:27.231Z,282.07
2019-01-03T11:24:27.187Z,282.40
2019-01-03T11:25:27.187Z,282.32
2019-01-03T11:26:27.174Z,282.90
2019-01-03T11:27:27.179Z,281.69
2019-01-03T11:28:27.148Z,282.94
2019-01-03T11:29:27.141Z,282.33
2019-01-03T11:30:27.143Z,282.69
2019-01-03T11:31:27.191Z,282.89
2019-01-03T11:32:27.104Z,282.50
2019-01-03T11:33:27.151Z,282.30
2019-01-03T11:34:27.145Z,282.65
2019-01-03T11:35:27.069Z,282.29
2019-01-03T11:36:27.074Z,282.76
2019-01-03T11:37:27.052Z,281.98
2019-01-03T11:38:27.037Z,282.73
2019-01-03T11:39:27.040Z,283.43
2019-01-03T11:40:27.047Z,283.27
2019-01-03T11:41:27.015Z,283.56
2019-01-03T11:42:27.441Z,282.88
2019-01-03T11:43:26.988Z,283.89
2019-01-03T11:44:27.081Z,282.91
2019-01-03T11:45:26.987Z,282.88
2019-01-03T11:46:26.976Z,283.55
2019-01-03T11:47:27.296Z,283.35
2019-01-03T11:48:27.154Z,283.35
2019-01-03T11:49:27.304Z,283.50
2019-01-03T11:50:26.942Z,283.13
2019-01-03T11:51:26.914Z,283.31
2019-01-03T11:52:26.953Z,283.20
2019-01-03T11:53:26.892Z,283.62
2019-01-03T11:54:26.887Z,284.32
2019-01-03T11:55:26.870Z,283.38
2019-01-03T11:56:26.856Z,283.55
2019-01-03T11:57:26.839Z,283.29
2019-01-03T11:58:26.831Z,283.82
2019-01-03T11:59:26.818Z,283.52
2019-01-03T12:00:26.872Z,283.54
2019-01-03T12:01:26.813Z,283.20
2019-01-03T12:02:26.787Z,283.53
2019-01-03T12:03:26.827Z,283.82
2019-01-03T12:04:26.771Z,284.21
2019-01-03T12:05:26.752Z,283.75
2019-01-03T12:06:26.759Z,283.39
2019-01-03T12:07:26.927Z,278.17
2019-01-03T12:08:26.736Z,283.21
2019-01-03T12:09:26.787Z,283.40
2019-01-03T12:10:26.740Z,284.33
2019-01-03T12:11:26.739Z,283.29
2019-01-03T12:12:26.719Z,283.57
2019-01-03T12:13:26.699Z,283.45
2019-01-03T12:14:26.679Z,283.73
2019-01-03T12:15:26.663Z,283.53
2019-01-03T12:16:26.661Z,283.38
2019-01-03T12:17:26.640Z,283.76
2019-01-03T12:18:26.675Z,283.71
2019-01-03T12:19:26.736Z,283.10
2019-01-03T12:20:26.607Z,284.09
2019-01-03T12:21:26.594Z,283.45
2019-01-03T12:22:26.590Z,283.42
2019-01-03T12:23:26.614Z,283.10
2019-01-03T12:24:30.554Z,283.44
2019-01-03T12:25:26.544Z,283.19
2019-01-03T12:26:26.550Z,284.32
2019-01-03T12:27:26.533Z,283.17
2019-01-03T12:28:26.527Z,282.71